createdAt,value
2017-08-27T00:01:26.973Z,9.10
2017-08-27T00:03:53.808Z,9.00
2017-08-27T00:06:20.699Z,8.80
2017-08-27T00:08:47.510Z,9.53
2017-08-27T00:11:14.432Z,8.63
2017-08-27T00:13:41.292Z,9.47
2017-08-27T00:16:08.110Z,9.50
2017-08-27T00:18:34.905Z,9.00
2017-08-27T00:21:01.790Z,9.53
2017-08-27T00:23:28.594Z,9.43
2017-08-27T00:25:55.398Z,10.10
2017-08-27T00:28:22.256Z,8.93
2017-08-27T00:30:49.075Z,11.53
2017-08-27T00:33:15.883Z,9.40
2017-08-27T00:35:42.754Z,9.53
2017-08-27T00:38:09.581Z,10.17
2017-08-27T00:40:36.415Z,10.07
2017-08-27T00:43:03.385Z,10.53
2017-08-27T00:45:30.182Z,9.33
2017-08-27T00:47:57.061Z,9.87
2017-08-27T00:50:24.003Z,10.10
2017-08-27T00:52:50.780Z,8.30
2017-08-27T00:55:17.624Z,9.80
2017-08-27T00:57:44.532Z,10.03
2017-08-27T01:00:11.323Z,9.80
2017-08-27T01:02:38.105Z,9.50
2017-08-27T01:05:04.924Z,9.23
2017-08-27T01:07:31.713Z,9.80
2017-08-27T01:09:58.555Z,9.57
2017-08-27T01:12:25.378Z,10.33
2017-08-27T01:14:52.193Z,10.07
2017-08-27T01:17:19.026Z,9.67
2017-08-27T01:19:45.892Z,8.97
2017-08-27T01:22:12.793Z,9.60
2017-08-27T01:24:39.687Z,10.40
2017-08-27T01:27:06.521Z,9.17
2017-08-27T01:29:33.354Z,12.00
2017-08-27T01:32:00.203Z,10.30
2017-08-27T01:34:27.082Z,11.10
2017-08-27T01:36:53.881Z,10.20
2017-08-27T01:39:20.688Z,9.03
2017-08-27T01:41:47.493Z,9.60
2017-08-27T01:44:14.264Z,10.23
2017-08-27T01:46:41.165Z,11.20
2017-08-27T01:49:07.989Z,11.03
2017-08-27T01:51:34.829Z,10.23
2017-08-27T01:54:01.617Z,9.73
2017-08-27T01:56:28.466Z,10.37
2017-08-27T01:58:55.284Z,11.07
2017-08-27T02:01:22.077Z,10.03
2017-08-27T02:03:48.949Z,10.00
2017-08-27T02:06:15.778Z,9.60
2017-08-27T02:08:42.549Z,10.70
2017-08-27T02:11:09.357Z,10.10
2017-08-27T02:13:36.155Z,9.43
2017-08-27T02:16:02.972Z,10.30
2017-08-27T02:18:29.821Z,10.20
2017-08-27T02:20:56.625Z,10.20
2017-08-27T02:23:23.471Z,10.83
2017-08-27T02:25:50.353Z,11.40
2017-08-27T02:28:17.153Z,9.77
2017-08-27T02:30:43.967Z,9.80
2017-08-27T02:33:10.805Z,9.70
2017-08-27T02:35:37.612Z,10.23
2017-08-27T02:38:04.450Z,10.73
2017-08-27T02:40:31.391Z,10.70
2017-08-27T02:42:58.228Z,9.87
2017-08-27T02:45:25.070Z,9.50
2017-08-27T02:47:52.829Z,9.27
2017-08-27T02:50:19.662Z,9.30
2017-08-27T02:52:46.490Z,9.30
2017-08-27T02:55:13.351Z,9.27
2017-08-27T02:57:40.165Z,8.77
2017-08-27T03:00:06.933Z,9.80
2017-08-27T03:02:33.774Z,9.23
2017-08-27T03:05:00.606Z,8.93
2017-08-27T03:07:27.426Z,9.47
2017-08-27T03:09:54.264Z,9.43
2017-08-27T03:12:21.156Z,9.00
2017-08-27T03:14:47.961Z,12.67
2017-08-27T03:17:14.837Z,9.63
2017-08-27T03:19:41.605Z,9.40
2017-08-27T03:22:08.417Z,9.40
2017-08-27T03:24:35.284Z,8.77
2017-08-27T03:27:02.059Z,9.20
2017-08-27T03:29:28.872Z,9.10
2017-08-27T03:31:55.789Z,10.03
2017-08-27T03:34:22.623Z,9.03
2017-08-27T03:36:49.471Z,9.60
2017-08-27T03:39:16.315Z,8.73
2017-08-27T03:41:43.113Z,10.40
2017-08-27T03:44:09.878Z,9.27
2017-08-27T03:46:36.725Z,9.10
2017-08-27T03:49:03.497Z,9.73
2017-08-27T03:51:30.525Z,10.50
2017-08-27T03:53:57.379Z,9.47
2017-08-27T03:56:24.196Z,10.50
2017-08-27T03:58:50.982Z,9.30
2017-08-27T04:01:17.782Z,9.73
2017-08-27T04:03:44.544Z,9.43
2017-08-27T04:06:11.371Z,9.23
2017-08-27T04:08:38.223Z,9.13
2017-08-27T04:11:05.074Z,9.33
2017-08-27T04:13:31.877Z,8.67
2017-08-27T04:15:58.748Z,10.57
2017-08-27T04:18:25.546Z,8.90
2017-08-27T04:20:52.317Z,12.37
2017-08-27T04:23:19.655Z,11.43
2017-08-27T04:25:46.495Z,11.50
2017-08-27T04:28:13.322Z,9.00
2017-08-27T04:30:40.157Z,11.30
2017-08-27T04:33:06.957Z,9.77
2017-08-27T04:35:33.772Z,10.53
2017-08-27T04:38:00.625Z,10.50
2017-08-27T04:40:27.419Z,12.73
2017-08-27T04:42:54.225Z,10.50
2017-08-27T04:45:21.156Z,9.83
2017-08-27T04:47:47.993Z,11.73
2017-08-27T04:50:14.823Z,9.50
2017-08-27T04:52:41.672Z,8.30
2017-08-27T04:55:08.519Z,10.07
2017-08-27T04:57:35.365Z,10.33
2017-08-27T05:00:02.224Z,9.33
2017-08-27T05:02:29.059Z,8.90
2017-08-27T05:04:55.832Z,9.77
2017-08-27T05:07:22.662Z,10.87
2017-08-27T05:09:49.490Z,9.43
2017-08-27T05:12:16.269Z,9.90
2017-08-27T05:14:43.110Z,11.17
2017-08-27T05:17:09.999Z,9.40
2017-08-27T05:19:36.810Z,9.10
2017-08-27T05:22:03.613Z,8.17
2017-08-27T05:24:30.410Z,8.73
2017-08-27T05:26:57.224Z,9.90
2017-08-27T05:29:24.082Z,7.90
2017-08-27T05:31:50.903Z,10.80
2017-08-27T05:34:17.793Z,9.00
2017-08-27T05:36:44.612Z,9.40
2017-08-27T05:39:11.390Z,9.33
2017-08-27T05:41:38.226Z,8.23
2017-08-27T05:44:05.043Z,8.53
2017-08-27T05:46:31.849Z,8.63
2017-08-27T05:48:58.697Z,8.20
2017-08-27T05:51:25.572Z,9.30
2017-08-27T05:53:52.425Z,10.60
2017-08-27T05:56:19.192Z,9.50
2017-08-27T05:58:46.050Z,9.60
2017-08-27T06:01:12.868Z,9.57
2017-08-27T06:03:39.641Z,9.60
2017-08-27T06:06:06.530Z,9.73
2017-08-27T06:08:33.298Z,9.03
2017-08-27T06:11:00.135Z,12.23
2017-08-27T06:13:27.120Z,10.27
2017-08-27T06:15:53.918Z,9.67
2017-08-27T06:18:20.701Z,9.63
2017-08-27T06:20:47.587Z,11.30
2017-08-27T06:23:14.435Z,10.20
2017-08-27T06:25:41.279Z,9.87
2017-08-27T06:28:08.114Z,10.00
2017-08-27T06:30:34.926Z,9.83
2017-08-27T06:33:01.721Z,9.33
2017-08-27T06:35:28.557Z,10.07
2017-08-27T06:37:55.377Z,9.67
2017-08-27T06:40:22.238Z,9.27
2017-08-27T06:42:49.118Z,10.57
2017-08-27T06:45:15.889Z,10.47
2017-08-27T06:47:42.746Z,11.30
2017-08-27T06:50:09.614Z,10.23
2017-08-27T06:52:36.418Z,9.40
2017-08-27T06:55:03.258Z,10.00
2017-08-27T06:57:30.081Z,9.90
2017-08-27T06:59:56.923Z,10.30
2017-08-27T07:02:23.744Z,9.70
2017-08-27T07:04:50.591Z,9.90
2017-08-27T07:07:17.414Z,10.40
2017-08-27T07:09:44.209Z,10.63
2017-08-27T07:12:11.121Z,15.07
2017-08-27T07:14:37.909Z,9.63
2017-08-27T07:18:03.664Z,11.27
2017-08-27T07:20:31.285Z,13.80
2017-08-27T07:22:58.808Z,17.50
2017-08-27T07:25:26.379Z,11.63
2017-08-27T07:27:53.877Z,11.20
2017-08-27T07:30:21.404Z,10.00
2017-08-27T07:32:48.988Z,10.07
2017-08-27T07:35:16.482Z,9.40
2017-08-27T07:37:43.999Z,9.37
2017-08-27T07:40:11.556Z,9.27
2017-08-27T07:42:39.093Z,8.77
2017-08-27T07:45:06.657Z,9.23
2017-08-27T07:47:34.178Z,9.27
2017-08-27T07:50:01.662Z,8.90
2017-08-27T07:52:29.223Z,9.00
2017-08-27T07:54:56.812Z,8.83
2017-08-27T07:57:24.370Z,10.83
2017-08-27T07:59:51.888Z,10.20
2017-08-27T08:02:19.473Z,11.30
2017-08-27T08:04:47.004Z,10.70
2017-08-27T08:07:14.510Z,11.60
2017-08-27T08:09:42.058Z,9.80
2017-08-27T08:12:09.579Z,10.17
2017-08-27T08:14:37.175Z,9.63
2017-08-27T08:17:04.748Z,9.83
2017-08-27T08:19:32.277Z,8.77
2017-08-27T08:21:59.760Z,9.57
2017-08-27T08:24:27.287Z,8.53
2017-08-27T08:26:54.807Z,8.67
2017-08-27T08:29:22.282Z,8.87
2017-08-27T08:31:49.804Z,9.13
2017-08-27T08:34:17.315Z,9.07
2017-08-27T08:36:44.831Z,12.80
2017-08-27T08:39:12.459Z,16.60
2017-08-27T08:41:40.040Z,11.80
2017-08-27T08:44:07.518Z,9.67
2017-08-27T08:46:35.076Z,10.37
2017-08-27T08:49:02.598Z,9.13
2017-08-27T08:54:22.927Z,8.37
2017-08-27T08:56:50.471Z,8.43
2017-08-27T08:59:18.000Z,8.77
2017-08-27T09:01:45.559Z,10.83
2017-08-27T09:04:13.116Z,17.07
2017-08-27T09:06:40.667Z,12.87
2017-08-27T09:09:08.193Z,8.83
2017-08-27T09:11:35.713Z,8.50
2017-08-27T09:16:56.549Z,7.87
2017-08-27T09:19:24.166Z,8.30
2017-08-27T09:21:51.646Z,7.50
2017-08-27T09:24:19.310Z,7.93
2017-08-27T09:26:46.869Z,8.20
2017-08-27T09:29:14.365Z,6.60
2017-08-27T09:31:41.949Z,7.13
2017-08-27T09:34:09.481Z,6.73
2017-08-27T09:36:36.968Z,7.63
2017-08-27T09:39:04.596Z,6.50
2017-08-27T09:41:32.121Z,7.33
2017-08-27T09:43:59.680Z,7.60
2017-08-27T09:46:27.245Z,8.33
2017-08-27T09:48:54.760Z,8.83
2017-08-27T09:51:22.564Z,6.40
2017-08-27T09:53:50.126Z,8.33
2017-08-27T09:56:17.672Z,5.73
2017-08-27T09:58:45.227Z,5.87
2017-08-27T10:01:12.746Z,5.40
2017-08-27T10:03:40.266Z,5.70
2017-08-27T10:06:08.548Z,6.40
2017-08-27T10:08:36.149Z,10.00
2017-08-27T10:11:03.661Z,8.00
2017-08-27T10:13:31.309Z,5.33
2017-08-27T10:15:58.907Z,4.30
2017-08-27T10:18:26.451Z,4.17
2017-08-27T10:20:53.977Z,4.77
2017-08-27T10:23:21.541Z,6.20
2017-08-27T10:25:49.098Z,4.47
2017-08-27T10:28:16.593Z,9.17
2017-08-27T10:30:44.194Z,4.60
2017-08-27T10:35:44.500Z,4.20
2017-08-27T10:38:12.034Z,4.77
2017-08-27T10:40:39.593Z,4.17
2017-08-27T10:43:07.149Z,3.47
2017-08-27T10:45:34.697Z,5.17
2017-08-27T10:48:02.254Z,3.77
2017-08-27T10:50:29.778Z,4.83
2017-08-27T10:52:57.270Z,3.60
2017-08-27T10:55:24.797Z,4.20
2017-08-27T10:57:52.360Z,4.87
2017-08-27T11:00:19.884Z,5.30
2017-08-27T11:02:47.440Z,3.87
2017-08-27T11:05:14.962Z,4.60
2017-08-27T11:07:42.508Z,4.10
2017-08-27T11:10:09.982Z,3.90
2017-08-27T11:12:37.502Z,5.77
2017-08-27T11:15:05.036Z,5.10
2017-08-27T11:17:32.593Z,9.47
2017-08-27T11:20:00.168Z,5.50
2017-08-27T11:22:27.652Z,5.00
2017-08-27T11:24:55.195Z,4.30
2017-08-27T11:27:22.726Z,4.50
2017-08-27T11:29:50.276Z,4.70
2017-08-27T11:32:17.911Z,4.10
2017-08-27T11:34:45.500Z,4.77
2017-08-27T11:37:13.021Z,7.43
2017-08-27T11:39:40.558Z,4.83
2017-08-27T11:42:08.143Z,4.37
2017-08-27T11:44:35.673Z,5.17
2017-08-27T11:47:03.219Z,4.93
2017-08-27T11:49:30.773Z,4.53
2017-08-27T11:51:58.392Z,4.57
2017-08-27T11:54:25.933Z,4.73
2017-08-27T11:56:53.584Z,5.10
2017-08-27T11:59:21.505Z,4.30
2017-08-27T12:01:49.023Z,4.33
2017-08-27T12:04:16.609Z,4.30
2017-08-27T12:06:44.272Z,5.07
2017-08-27T12:09:11.831Z,5.47
2017-08-27T12:11:39.400Z,4.40
2017-08-27T12:14:06.973Z,5.87
2017-08-27T12:16:34.446Z,4.57
2017-08-27T12:19:02.024Z,4.23
2017-08-27T12:21:29.513Z,4.53
2017-08-27T12:23:57.059Z,5.87
2017-08-27T12:26:24.628Z,4.57
2017-08-27T12:28:52.118Z,3.90
2017-08-27T12:31:19.648Z,5.03
2017-08-27T12:33:47.282Z,4.50
2017-08-27T12:36:14.808Z,4.33
2017-08-27T12:38:42.377Z,4.23
2017-08-27T12:41:09.958Z,4.80
2017-08-27T12:43:37.521Z,4.07
2017-08-27T12:46:05.164Z,3.97
2017-08-27T12:48:32.743Z,4.20
2017-08-27T12:51:00.227Z,5.10
2017-08-27T12:53:27.716Z,6.60
2017-08-27T12:55:55.317Z,4.40
2017-08-27T12:58:22.811Z,5.07
2017-08-27T13:00:50.374Z,5.30
2017-08-27T13:03:17.941Z,4.03
2017-08-27T13:05:45.455Z,4.10
2017-08-27T13:08:12.950Z,4.40
2017-08-27T13:10:40.540Z,5.93
2017-08-27T13:13:08.097Z,4.67
2017-08-27T13:15:35.623Z,5.00
2017-08-27T13:18:03.182Z,4.80
2017-08-27T13:20:30.717Z,4.77
2017-08-27T13:22:58.254Z,5.30
2017-08-27T13:25:25.835Z,4.77
2017-08-27T13:27:53.376Z,4.73
2017-08-27T13:30:20.870Z,4.33
2017-08-27T13:32:48.489Z,6.27
2017-08-27T13:35:16.037Z,6.07
2017-08-27T13:37:43.563Z,5.13
2017-08-27T13:40:11.164Z,6.00
2017-08-27T13:42:38.675Z,5.33
2017-08-27T13:45:06.191Z,4.37
2017-08-27T13:47:33.776Z,5.03
2017-08-27T13:50:01.288Z,5.40
2017-08-27T13:52:28.802Z,5.23
2017-08-27T13:54:57.049Z,4.90
2017-08-27T13:57:24.563Z,4.80
2017-08-27T13:59:52.075Z,4.80
2017-08-27T14:02:19.615Z,4.50
2017-08-27T14:04:47.140Z,5.90
2017-08-27T14:07:14.618Z,4.53
2017-08-27T14:09:42.179Z,4.77
2017-08-27T14:12:09.708Z,4.73
2017-08-27T14:14:37.241Z,5.57
2017-08-27T14:17:04.769Z,5.60
2017-08-27T14:19:32.295Z,4.50
2017-08-27T14:21:59.831Z,4.90
2017-08-27T14:24:27.437Z,4.30
2017-08-27T14:26:54.969Z,5.20
2017-08-27T14:29:22.496Z,4.93
2017-08-27T14:31:50.023Z,5.50
2017-08-27T14:34:17.887Z,5.73
2017-08-27T14:36:45.370Z,5.60
2017-08-27T14:39:12.967Z,6.27
2017-08-27T14:41:40.471Z,5.63
2017-08-27T14:44:07.962Z,5.73
2017-08-27T14:46:35.492Z,5.40
2017-08-27T14:49:03.020Z,5.50
2017-08-27T14:51:30.584Z,5.60
2017-08-27T14:53:58.105Z,5.17
2017-08-27T14:56:25.638Z,6.03
2017-08-27T14:58:53.168Z,5.60
2017-08-27T15:01:20.780Z,5.33
2017-08-27T15:03:48.332Z,5.20
2017-08-27T15:06:15.813Z,6.07
2017-08-27T15:08:43.388Z,5.63
2017-08-27T15:11:10.901Z,5.90
2017-08-27T15:13:38.514Z,5.40
2017-08-27T15:16:06.032Z,5.00
2017-08-27T15:18:33.636Z,5.30
2017-08-27T15:21:01.188Z,5.60
2017-08-27T15:23:28.768Z,5.97
2017-08-27T15:25:56.324Z,5.77
2017-08-27T15:28:23.948Z,5.80
2017-08-27T15:30:51.474Z,5.93
2017-08-27T15:33:19.081Z,6.07
2017-08-27T15:35:46.621Z,5.97
2017-08-27T15:38:14.246Z,7.33
2017-08-27T15:40:41.757Z,5.20
2017-08-27T15:43:09.277Z,5.73
2017-08-27T15:45:36.843Z,5.97
2017-08-27T15:48:04.366Z,5.73
2017-08-27T15:50:31.916Z,5.27
2017-08-27T15:52:59.482Z,7.07
2017-08-27T15:55:26.995Z,5.57
2017-08-27T15:57:54.545Z,5.50
2017-08-27T16:00:22.690Z,6.80
2017-08-27T16:02:50.211Z,5.23
2017-08-27T16:05:17.718Z,5.43
2017-08-27T16:07:45.330Z,7.03
2017-08-27T16:10:12.911Z,5.57
2017-08-27T16:12:40.392Z,5.80
2017-08-27T16:15:08.603Z,5.77
2017-08-27T16:17:36.140Z,6.03
2017-08-27T16:20:03.683Z,5.37
2017-08-27T16:22:31.283Z,5.93
2017-08-27T16:24:58.843Z,5.70
2017-08-27T16:27:26.350Z,5.80
2017-08-27T16:29:53.923Z,6.17
2017-08-27T16:32:21.432Z,5.43
2017-08-27T16:34:48.978Z,5.90
2017-08-27T16:37:16.515Z,8.37
2017-08-27T16:39:44.476Z,6.90
2017-08-27T16:42:12.039Z,6.77
2017-08-27T16:44:39.620Z,6.70
2017-08-27T16:47:29.835Z,6.80
2017-08-27T16:49:57.413Z,6.13
2017-08-27T16:52:24.896Z,6.00
2017-08-27T16:54:52.492Z,7.13
2017-08-27T16:57:20.184Z,9.30
2017-08-27T16:59:47.760Z,7.33
2017-08-27T17:02:15.254Z,9.00
2017-08-27T17:04:42.796Z,7.17
2017-08-27T17:07:10.372Z,9.07
2017-08-27T17:09:37.913Z,7.00
2017-08-27T17:12:05.502Z,7.10
2017-08-27T17:14:33.034Z,6.50
2017-08-27T17:17:00.558Z,6.90
2017-08-27T17:19:28.116Z,5.93
2017-08-27T17:21:55.652Z,7.83
2017-08-27T17:24:23.212Z,7.27
2017-08-27T17:26:50.810Z,11.83
2017-08-27T17:29:18.367Z,7.50
2017-08-27T17:31:45.896Z,6.90
2017-08-27T17:34:13.450Z,8.23
2017-08-27T17:36:41.099Z,8.97
2017-08-27T17:39:08.630Z,7.80
2017-08-27T17:41:36.168Z,9.60
2017-08-27T17:44:03.710Z,12.00
2017-08-27T17:46:31.214Z,12.50
2017-08-27T17:48:58.749Z,12.23
2017-08-27T17:51:26.254Z,8.97
2017-08-27T17:53:53.812Z,7.87
2017-08-27T17:56:20.847Z,9.00
2017-08-27T17:58:47.699Z,8.07
2017-08-27T18:01:14.485Z,8.60
2017-08-27T18:03:41.332Z,7.77
2017-08-27T18:06:08.156Z,8.03
2017-08-27T18:08:34.951Z,8.20
2017-08-27T18:11:01.841Z,9.30
2017-08-27T18:13:28.621Z,9.03
2017-08-27T18:15:55.472Z,10.10
2017-08-27T18:18:22.420Z,9.80
2017-08-27T18:20:49.237Z,9.07
2017-08-27T18:23:16.729Z,9.50
2017-08-27T18:25:43.554Z,8.70
2017-08-27T18:28:10.377Z,10.70
2017-08-27T18:30:37.158Z,8.80
2017-08-27T18:33:04.020Z,9.97
2017-08-27T18:35:30.836Z,10.87
2017-08-27T18:37:57.838Z,9.40
2017-08-27T18:40:24.720Z,15.17
2017-08-27T18:42:51.561Z,10.77
2017-08-27T18:45:18.384Z,12.20
2017-08-27T18:47:45.203Z,12.83
2017-08-27T18:50:12.005Z,15.90
2017-08-27T18:52:38.814Z,17.80
2017-08-27T18:55:05.639Z,16.43
2017-08-27T18:57:32.450Z,14.83
2017-08-27T18:59:59.291Z,16.30
2017-08-27T19:02:28.956Z,13.00
2017-08-27T19:04:55.806Z,13.43
2017-08-27T19:07:22.592Z,15.70
2017-08-27T19:09:49.436Z,12.37
2017-08-27T19:12:16.260Z,12.63
2017-08-27T19:14:43.157Z,11.60
2017-08-27T19:17:10.062Z,12.67
2017-08-27T19:19:36.857Z,10.57
2017-08-27T19:22:03.706Z,11.50
2017-08-27T19:24:30.543Z,10.00
2017-08-27T19:26:57.490Z,9.80
2017-08-27T19:29:24.267Z,9.07
2017-08-27T19:31:51.077Z,9.30
2017-08-27T19:34:17.905Z,9.23
2017-08-27T19:36:44.755Z,8.47
2017-08-27T19:39:11.639Z,8.63
2017-08-27T19:41:38.460Z,9.53
2017-08-27T19:44:05.275Z,8.80
2017-08-27T19:46:32.222Z,8.80
2017-08-27T19:48:59.043Z,9.17
2017-08-27T19:51:25.822Z,8.80
2017-08-27T19:53:52.665Z,8.80
2017-08-27T19:56:19.442Z,8.37
2017-08-27T19:58:46.260Z,9.50
2017-08-27T20:01:13.106Z,8.50
2017-08-27T20:03:39.953Z,10.30
2017-08-27T20:06:06.751Z,8.47
2017-08-27T20:08:33.612Z,8.93
2017-08-27T20:11:00.394Z,7.87
2017-08-27T20:13:27.213Z,8.00
2017-08-27T20:15:54.087Z,8.97
2017-08-27T20:18:20.926Z,8.63
2017-08-27T20:20:47.808Z,9.20
2017-08-27T20:23:14.621Z,13.27
2017-08-27T20:25:41.470Z,10.20
2017-08-27T20:28:08.287Z,10.07
2017-08-27T20:30:35.216Z,10.73
2017-08-27T20:33:02.071Z,11.20
2017-08-27T20:35:29.785Z,9.97
2017-08-27T20:37:56.640Z,11.63
2017-08-27T20:40:23.475Z,9.67
2017-08-27T20:42:50.288Z,8.93
2017-08-27T20:45:17.129Z,12.33
2017-08-27T20:47:43.898Z,10.33
2017-08-27T20:50:10.689Z,10.10
2017-08-27T20:52:37.575Z,9.93
2017-08-27T20:55:04.394Z,10.43
2017-08-27T20:57:31.227Z,9.53
2017-08-27T20:59:58.102Z,10.57
2017-08-27T21:02:25.050Z,10.70
2017-08-27T21:04:51.901Z,10.00
2017-08-27T21:07:18.709Z,12.90
2017-08-27T21:09:45.486Z,10.33
2017-08-27T21:12:12.289Z,11.10
2017-08-27T21:14:39.173Z,10.13
2017-08-27T21:17:06.017Z,10.43
2017-08-27T21:19:32.858Z,10.23
2017-08-27T21:21:59.726Z,9.13
2017-08-27T21:24:26.497Z,11.77
2017-08-27T21:26:53.308Z,9.50
2017-08-27T21:29:20.468Z,11.80
2017-08-27T21:31:47.253Z,11.00
2017-08-27T21:34:14.068Z,8.60
2017-08-27T21:36:40.936Z,9.43
2017-08-27T21:39:07.710Z,10.00
2017-08-27T21:41:34.490Z,9.87
2017-08-27T21:44:01.356Z,8.87
2017-08-27T21:46:28.134Z,10.07
2017-08-27T21:48:54.935Z,9.60
2017-08-27T21:51:21.818Z,12.03
2017-08-27T21:53:48.663Z,11.87
2017-08-27T21:56:15.514Z,10.70
2017-08-27T21:58:42.398Z,8.90
2017-08-27T22:01:09.224Z,10.87
2017-08-27T22:03:36.073Z,9.10
2017-08-27T22:06:02.946Z,10.03
2017-08-27T22:08:29.891Z,9.87
2017-08-27T22:10:56.677Z,9.67
2017-08-27T22:13:23.522Z,10.27
2017-08-27T22:15:50.339Z,9.43
2017-08-27T22:18:17.156Z,9.27
2017-08-27T22:20:44.012Z,9.33
2017-08-27T22:23:10.794Z,13.10
2017-08-27T22:25:37.608Z,8.60
2017-08-27T22:28:04.434Z,9.80
2017-08-27T22:30:31.248Z,9.70
2017-08-27T22:32:58.061Z,10.43
2017-08-27T22:35:24.862Z,7.97
2017-08-27T22:37:51.718Z,8.77
2017-08-27T22:40:18.532Z,12.53
2017-08-27T22:42:45.424Z,8.57
2017-08-27T22:45:12.244Z,8.27
2017-08-27T22:47:39.010Z,8.70
2017-08-27T22:50:05.858Z,10.20
2017-08-27T22:52:32.691Z,13.40
2017-08-27T22:54:59.522Z,11.43
2017-08-27T22:57:26.369Z,8.93
2017-08-27T22:59:53.172Z,8.50
2017-08-27T23:02:19.946Z,8.87
2017-08-27T23:04:46.842Z,9.07
2017-08-27T23:07:13.678Z,9.57
2017-08-27T23:09:40.446Z,9.30
2017-08-27T23:12:07.322Z,9.20
2017-08-27T23:14:34.126Z,8.70
2017-08-27T23:17:00.976Z,10.03
2017-08-27T23:19:27.874Z,9.70
2017-08-27T23:21:54.845Z,10.20
2017-08-27T23:24:21.625Z,9.30
2017-08-27T23:26:48.483Z,8.90
2017-08-27T23:29:15.298Z,9.23
2017-08-27T23:31:42.136Z,8.80
2017-08-27T23:34:09.020Z,8.87
2017-08-27T23:36:35.817Z,8.13
2017-08-27T23:39:02.640Z,7.17
2017-08-27T23:41:29.491Z,8.67
2017-08-27T23:43:56.291Z,8.57
2017-08-27T23:46:23.100Z,8.80
2017-08-27T23:48:49.912Z,8.80
2017-08-27T23:51:16.723Z,8.13
2017-08-27T23:53:43.540Z,9.73
2017-08-27T23:56:10.415Z,8.23
2017-08-27T23:58:37.228Z,8.37
